sensor_id;sensor_type;location;lat;lon;timestamp;P1;durP1;ratioP1;P2;durP2;ratioP2
46881;SDS011;44112;38.408;-122.974;2022-08-24T00:00:16;6.45;;;3.08;;
46881;SDS011;44112;38.408;-122.974;2022-08-24T00:02:45;6.30;;;3.20;;
46881;SDS011;44112;38.408;-122.974;2022-08-24T00:05:13;6.88;;;3.47;;
46881;SDS011;44112;38.408;-122.974;2022-08-24T00:07:41;6.20;;;3.13;;
46881;SDS011;44112;38.408;-122.974;2022-08-24T00:10:09;7.38;;;3.40;;
46881;SDS011;44112;38.408;-122.974;2022-08-24T00:12:37;8.40;;;3.28;;
46881;SDS011;44112;38.408;-122.974;2022-08-24T00:15:06;6.05;;;2.97;;
46881;SDS011;44112;38.408;-122.974;2022-08-24T00:17:35;6.38;;;3.20;;
46881;SDS011;44112;38.408;-122.974;2022-08-24T00:20:04;7.13;;;3.40;;
46881;SDS011;44112;38.408;-122.974;2022-08-24T00:22:32;6.82;;;3.53;;
46881;SDS011;44112;38.408;-122.974;2022-08-24T00:25:00;6.70;;;3.20;;
46881;SDS011;44112;38.408;-122.974;2022-08-24T00:27:26;6.32;;;3.08;;
46881;SDS011;44112;38.408;-122.974;2022-08-24T00:29:53;6.10;;;3.40;;
46881;SDS011;44112;38.408;-122.974;2022-08-24T00:32:20;9.65;;;3.40;;
46881;SDS011;44112;38.408;-122.974;2022-08-24T00:34:47;6.43;;;3.30;;
46881;SDS011;44112;38.408;-122.974;2022-08-24T00:37:14;6.95;;;3.05;;
46881;SDS011;44112;38.408;-122.974;2022-08-24T00:39:40;6.07;;;3.22;;
46881;SDS011;44112;38.408;-122.974;2022-08-24T00:42:07;6.25;;;3.47;;
46881;SDS011;44112;38.408;-122.974;2022-08-24T00:44:35;7.80;;;3.40;;
46881;SDS011;44112;38.408;-122.974;2022-08-24T00:47:03;5.40;;;3.10;;
46881;SDS011;44112;38.408;-122.974;2022-08-24T00:49:42;6.35;;;3.40;;
46881;SDS011;44112;38.408;-122.974;2022-08-24T00:52:31;6.53;;;3.10;;
46881;SDS011;44112;38.408;-122.974;2022-08-24T00:55:14;5.80;;;3.10;;
46881;SDS011;44112;38.408;-122.974;2022-08-24T00:57:45;5.45;;;3.22;;
46881;SDS011;44112;38.408;-122.974;2022-08-24T01:00:20;5.68;;;3.00;;
46881;SDS011;44112;38.408;-122.974;2022-08-24T01:05:21;7.43;;;3.20;;
46881;SDS011;44112;38.408;-122.974;2022-08-24T01:07:48;5.45;;;3.10;;
46881;SDS011;44112;38.408;-122.974;2022-08-24T01:10:16;7.07;;;3.20;;
46881;SDS011;44112;38.408;-122.974;2022-08-24T01:12:50;6.28;;;3.20;;
46881;SDS011;44112;38.408;-122.974;2022-08-24T01:15:20;7.13;;;3.08;;
46881;SDS011;44112;38.408;-122.974;2022-08-24T01:17:47;5.78;;;2.97;;
46881;SDS011;44112;38.408;-122.974;2022-08-24T01:20:33;6.28;;;3.00;;
46881;SDS011;44112;38.408;-122.974;2022-08-24T01:25:35;5.70;;;3.15;;
46881;SDS011;44112;38.408;-122.974;2022-08-24T01:28:05;6.13;;;3.10;;
46881;SDS011;44112;38.408;-122.974;2022-08-24T01:30:35;6.15;;;3.13;;
46881;SDS011;44112;38.408;-122.974;2022-08-24T01:33:04;7.88;;;3.10;;
46881;SDS011;44112;38.408;-122.974;2022-08-24T01:35:33;7.28;;;3.08;;
46881;SDS011;44112;38.408;-122.974;2022-08-24T01:38:05;6.30;;;3.10;;
46881;SDS011;44112;38.408;-122.974;2022-08-24T01:40:41;5.73;;;3.07;;
46881;SDS011;44112;38.408;-122.974;2022-08-24T01:43:17;6.15;;;2.92;;
46881;SDS011;44112;38.408;-122.974;2022-08-24T01:45:45;7.60;;;3.13;;
46881;SDS011;44112;38.408;-122.974;2022-08-24T01:48:11;7.93;;;3.28;;
46881;SDS011;44112;38.408;-122.974;2022-08-24T01:50:39;8.40;;;3.17;;
46881;SDS011;44112;38.408;-122.974;2022-08-24T01:53:07;7.32;;;3.40;;
46881;SDS011;44112;38.408;-122.974;2022-08-24T01:55:34;8.85;;;3.70;;
46881;SDS011;44112;38.408;-122.974;2022-08-24T01:58:02;11.18;;;3.80;;
46881;SDS011;44112;38.408;-122.974;2022-08-24T02:00:29;10.98;;;3.40;;
46881;SDS011;44112;38.408;-122.974;2022-08-24T02:02:56;11.82;;;3.58;;
46881;SDS011;44112;38.408;-122.974;2022-08-24T02:05:23;11.80;;;3.75;;
46881;SDS011;44112;38.408;-122.974;2022-08-24T02:07:51;13.90;;;3.95;;
46881;SDS011;44112;38.408;-122.974;2022-08-24T02:10:18;9.00;;;3.70;;
46881;SDS011;44112;38.408;-122.974;2022-08-24T02:12:45;7.55;;;3.75;;
46881;SDS011;44112;38.408;-122.974;2022-08-24T02:15:23;12.68;;;4.30;;
46881;SDS011;44112;38.408;-122.974;2022-08-24T02:17:54;10.77;;;4.18;;
46881;SDS011;44112;38.408;-122.974;2022-08-24T02:20:21;10.23;;;4.20;;
46881;SDS011;44112;38.408;-122.974;2022-08-24T02:22:49;10.57;;;4.70;;
46881;SDS011;44112;38.408;-122.974;2022-08-24T02:25:16;10.15;;;4.47;;
46881;SDS011;44112;38.408;-122.974;2022-08-24T02:27:44;11.05;;;4.88;;
46881;SDS011;44112;38.408;-122.974;2022-08-24T02:30:11;8.82;;;4.38;;
46881;SDS011;44112;38.408;-122.974;2022-08-24T02:32:38;8.55;;;4.25;;
46881;SDS011;44112;38.408;-122.974;2022-08-24T02:35:05;9.75;;;4.47;;
46881;SDS011;44112;38.408;-122.974;2022-08-24T02:37:33;10.57;;;4.68;;
46881;SDS011;44112;38.408;-122.974;2022-08-24T02:40:00;9.68;;;4.47;;
46881;SDS011;44112;38.408;-122.974;2022-08-24T02:42:27;13.65;;;4.50;;
46881;SDS011;44112;38.408;-122.974;2022-08-24T02:44:54;9.93;;;4.85;;
46881;SDS011;44112;38.408;-122.974;2022-08-24T02:47:20;12.27;;;4.72;;
46881;SDS011;44112;38.408;-122.974;2022-08-24T02:49:47;9.35;;;4.00;;
46881;SDS011;44112;38.408;-122.974;2022-08-24T02:52:13;11.63;;;4.68;;
46881;SDS011;44112;38.408;-122.974;2022-08-24T02:54:40;10.95;;;4.38;;
46881;SDS011;44112;38.408;-122.974;2022-08-24T02:57:06;10.82;;;4.65;;
46881;SDS011;44112;38.408;-122.974;2022-08-24T02:59:33;9.05;;;4.68;;
46881;SDS011;44112;38.408;-122.974;2022-08-24T03:01:59;10.20;;;4.72;;
46881;SDS011;44112;38.408;-122.974;2022-08-24T03:04:26;11.55;;;4.70;;
46881;SDS011;44112;38.408;-122.974;2022-08-24T03:06:53;8.63;;;3.60;;
46881;SDS011;44112;38.408;-122.974;2022-08-24T03:09:19;14.63;;;4.15;;
46881;SDS011;44112;38.408;-122.974;2022-08-24T03:11:45;10.15;;;4.18;;
46881;SDS011;44112;38.408;-122.974;2022-08-24T03:14:12;7.07;;;3.58;;
46881;SDS011;44112;38.408;-122.974;2022-08-24T03:16:39;7.10;;;3.35;;
46881;SDS011;44112;38.408;-122.974;2022-08-24T03:19:07;6.93;;;3.30;;
46881;SDS011;44112;38.408;-122.974;2022-08-24T03:21:33;8.73;;;3.35;;
46881;SDS011;44112;38.408;-122.974;2022-08-24T03:24:00;7.38;;;3.45;;
46881;SDS011;44112;38.408;-122.974;2022-08-24T03:26:26;6.20;;;3.25;;
46881;SDS011;44112;38.408;-122.974;2022-08-24T03:28:53;7.13;;;3.10;;
46881;SDS011;44112;38.408;-122.974;2022-08-24T03:31:20;6.38;;;3.13;;
46881;SDS011;44112;38.408;-122.974;2022-08-24T03:33:47;7.53;;;3.10;;
46881;SDS011;44112;38.408;-122.974;2022-08-24T03:36:13;6.25;;;3.30;;
46881;SDS011;44112;38.408;-122.974;2022-08-24T03:38:41;7.40;;;3.00;;
46881;SDS011;44112;38.408;-122.974;2022-08-24T03:41:09;6.63;;;3.20;;
46881;SDS011;44112;38.408;-122.974;2022-08-24T03:43:39;6.95;;;2.80;;
46881;SDS011;44112;38.408;-122.974;2022-08-24T03:46:24;5.43;;;3.00;;
46881;SDS011;44112;38.408;-122.974;2022-08-24T03:48:53;6.40;;;3.05;;
46881;SDS011;44112;38.408;-122.974;2022-08-24T03:51:22;5.90;;;3.00;;
46881;SDS011;44112;38.408;-122.974;2022-08-24T03:53:51;8.23;;;2.95;;
46881;SDS011;44112;38.408;-122.974;2022-08-24T03:56:19;6.07;;;2.80;;
46881;SDS011;44112;38.408;-122.974;2022-08-24T03:58:46;4.93;;;2.60;;
46881;SDS011;44112;38.408;-122.974;2022-08-24T04:01:13;5.18;;;2.70;;
46881;SDS011;44112;38.408;-122.974;2022-08-24T04:03:42;5.82;;;2.67;;
46881;SDS011;44112;38.408;-122.974;2022-08-24T04:06:10;6.20;;;3.13;;
46881;SDS011;44112;38.408;-122.974;2022-08-24T04:08:40;6.90;;;3.20;;
46881;SDS011;44112;38.408;-122.974;2022-08-24T04:11:11;7.32;;;3.20;;
46881;SDS011;44112;38.408;-122.974;2022-08-24T04:13:41;6.93;;;3.13;;
46881;SDS011;44112;38.408;-122.974;2022-08-24T04:16:08;6.43;;;3.30;;
46881;SDS011;44112;38.408;-122.974;2022-08-24T04:18:42;5.53;;;3.08;;
46881;SDS011;44112;38.408;-122.974;2022-08-24T04:21:19;6.63;;;3.22;;
46881;SDS011;44112;38.408;-122.974;2022-08-24T04:23:49;5.72;;;3.13;;
46881;SDS011;44112;38.408;-122.974;2022-08-24T04:26:19;5.40;;;3.10;;
46881;SDS011;44112;38.408;-122.974;2022-08-24T04:28:47;6.80;;;2.80;;
46881;SDS011;44112;38.408;-122.974;2022-08-24T04:31:14;7.57;;;3.05;;
46881;SDS011;44112;38.408;-122.974;2022-08-24T04:33:42;6.82;;;3.10;;
46881;SDS011;44112;38.408;-122.974;2022-08-24T04:36:12;6.55;;;3.30;;
46881;SDS011;44112;38.408;-122.974;2022-08-24T04:38:39;6.40;;;3.33;;
46881;SDS011;44112;38.408;-122.974;2022-08-24T04:41:07;6.00;;;3.10;;
46881;SDS011;44112;38.408;-122.974;2022-08-24T04:43:37;7.47;;;3.10;;
46881;SDS011;44112;38.408;-122.974;2022-08-24T04:46:09;7.55;;;3.55;;
46881;SDS011;44112;38.408;-122.974;2022-08-24T04:48:39;10.95;;;4.07;;
46881;SDS011;44112;38.408;-122.974;2022-08-24T04:51:08;9.27;;;3.95;;
46881;SDS011;44112;38.408;-122.974;2022-08-24T04:53:35;9.68;;;4.22;;
46881;SDS011;44112;38.408;-122.974;2022-08-24T04:56:07;10.07;;;4.10;;
46881;SDS011;44112;38.408;-122.974;2022-08-24T04:58:39;8.52;;;4.25;;
46881;SDS011;44112;38.408;-122.974;2022-08-24T05:01:07;8.10;;;4.05;;
46881;SDS011;44112;38.408;-122.974;2022-08-24T05:03:37;9.10;;;4.35;;
46881;SDS011;44112;38.408;-122.974;2022-08-24T05:06:05;9.82;;;3.90;;
46881;SDS011;44112;38.408;-122.974;2022-08-24T05:08:32;7.53;;;3.40;;
46881;SDS011;44112;38.408;-122.974;2022-08-24T05:10:59;8.60;;;4.00;;
46881;SDS011;44112;38.408;-122.974;2022-08-24T05:13:33;7.78;;;3.78;;
46881;SDS011;44112;38.408;-122.974;2022-08-24T05:16:00;8.00;;;3.50;;
46881;SDS011;44112;38.408;-122.974;2022-08-24T05:18:30;7.57;;;3.83;;
46881;SDS011;44112;38.408;-122.974;2022-08-24T05:20:57;8.57;;;4.10;;
46881;SDS011;44112;38.408;-122.974;2022-08-24T05:23:25;7.15;;;3.83;;
46881;SDS011;44112;38.408;-122.974;2022-08-24T05:25:52;11.65;;;4.20;;
46881;SDS011;44112;38.408;-122.974;2022-08-24T05:28:28;8.55;;;4.63;;
46881;SDS011;44112;38.408;-122.974;2022-08-24T05:30:54;10.63;;;4.35;;
46881;SDS011;44112;38.408;-122.974;2022-08-24T05:33:22;15.70;;;4.90;;
46881;SDS011;44112;38.408;-122.974;2022-08-24T05:35:50;9.90;;;4.53;;
46881;SDS011;44112;38.408;-122.974;2022-08-24T05:38:17;9.60;;;4.63;;
46881;SDS011;44112;38.408;-122.974;2022-08-24T05:40:43;10.68;;;4.60;;
46881;SDS011;44112;38.408;-122.974;2022-08-24T05:43:10;9.00;;;4.53;;
46881;SDS011;44112;38.408;-122.974;2022-08-24T05:45:40;8.98;;;4.68;;
46881;SDS011;44112;38.408;-122.974;2022-08-24T05:48:08;9.43;;;4.55;;
46881;SDS011;44112;38.408;-122.974;2022-08-24T05:50:35;9.18;;;4.50;;
46881;SDS011;44112;38.408;-122.974;2022-08-24T05:53:02;8.35;;;4.30;;
46881;SDS011;44112;38.408;-122.974;2022-08-24T05:55:29;11.25;;;4.65;;
46881;SDS011;44112;38.408;-122.974;2022-08-24T05:57:55;8.77;;;4.60;;
46881;SDS011;44112;38.408;-122.974;2022-08-24T06:00:23;8.57;;;4.47;;
46881;SDS011;44112;38.408;-122.974;2022-08-24T06:02:50;9.02;;;4.70;;
46881;SDS011;44112;38.408;-122.974;2022-08-24T06:05:17;9.77;;;4.68;;
46881;SDS011;44112;38.408;-122.974;2022-08-24T06:07:44;10.20;;;4.72;;
46881;SDS011;44112;38.408;-122.974;2022-08-24T06:10:11;9.55;;;4.72;;
46881;SDS011;44112;38.408;-122.974;2022-08-24T06:12:37;10.40;;;4.55;;
46881;SDS011;44112;38.408;-122.974;2022-08-24T06:15:04;9.27;;;4.55;;
46881;SDS011;44112;38.408;-122.974;2022-08-24T06:17:31;9.02;;;3.90;;
46881;SDS011;44112;38.408;-122.974;2022-08-24T06:19:58;8.30;;;4.32;;
46881;SDS011;44112;38.408;-122.974;2022-08-24T06:22:25;8.68;;;4.30;;
46881;SDS011;44112;38.408;-122.974;2022-08-24T06:24:51;9.90;;;4.55;;
46881;SDS011;44112;38.408;-122.974;2022-08-24T06:27:36;8.90;;;4.55;;
46881;SDS011;44112;38.408;-122.974;2022-08-24T06:30:04;8.10;;;4.20;;
46881;SDS011;44112;38.408;-122.974;2022-08-24T06:32:37;9.27;;;4.47;;
46881;SDS011;44112;38.408;-122.974;2022-08-24T06:35:04;8.00;;;4.07;;
46881;SDS011;44112;38.408;-122.974;2022-08-24T06:37:32;8.80;;;4.55;;
46881;SDS011;44112;38.408;-122.974;2022-08-24T06:39:58;8.40;;;3.90;;
46881;SDS011;44112;38.408;-122.974;2022-08-24T06:42:25;10.13;;;5.18;;
46881;SDS011;44112;38.408;-122.974;2022-08-24T06:44:53;9.57;;;4.38;;
46881;SDS011;44112;38.408;-122.974;2022-08-24T06:47:20;8.93;;;4.70;;
46881;SDS011;44112;38.408;-122.974;2022-08-24T06:49:46;9.93;;;4.45;;
46881;SDS011;44112;38.408;-122.974;2022-08-24T06:52:13;9.05;;;4.55;;
46881;SDS011;44112;38.408;-122.974;2022-08-24T06:54:40;9.45;;;4.45;;
46881;SDS011;44112;38.408;-122.974;2022-08-24T06:57:07;9.43;;;4.80;;
46881;SDS011;44112;38.408;-122.974;2022-08-24T06:59:33;9.23;;;4.30;;
46881;SDS011;44112;38.408;-122.974;2022-08-24T07:02:00;9.35;;;4.75;;
46881;SDS011;44112;38.408;-122.974;2022-08-24T07:04:26;10.02;;;4.82;;
46881;SDS011;44112;38.408;-122.974;2022-08-24T07:06:53;10.23;;;4.63;;
46881;SDS011;44112;38.408;-122.974;2022-08-24T07:09:20;9.73;;;4.57;;
46881;SDS011;44112;38.408;-122.974;2022-08-24T07:11:50;11.55;;;4.88;;
46881;SDS011;44112;38.408;-122.974;2022-08-24T07:14:17;10.00;;;4.70;;
46881;SDS011;44112;38.408;-122.974;2022-08-24T07:16:44;10.25;;;5.05;;
46881;SDS011;44112;38.408;-122.974;2022-08-24T07:19:11;10.93;;;4.93;;
46881;SDS011;44112;38.408;-122.974;2022-08-24T07:21:39;10.18;;;4.78;;
46881;SDS011;44112;38.408;-122.974;2022-08-24T07:24:07;10.30;;;4.63;;
46881;SDS011;44112;38.408;-122.974;2022-08-24T07:26:35;13.18;;;4.60;;
46881;SDS011;44112;38.408;-122.974;2022-08-24T07:29:05;9.52;;;4.40;;
46881;SDS011;44112;38.408;-122.974;2022-08-24T07:31:36;10.02;;;4.80;;
46881;SDS011;44112;38.408;-122.974;2022-08-24T07:34:05;9.38;;;4.97;;
46881;SDS011;44112;38.408;-122.974;2022-08-24T07:36:33;12.27;;;5.38;;
46881;SDS011;44112;38.408;-122.974;2022-08-24T07:39:02;10.23;;;4.70;;
46881;SDS011;44112;38.408;-122.974;2022-08-24T07:41:30;11.05;;;5.32;;
46881;SDS011;44112;38.408;-122.974;2022-08-24T07:43:58;13.98;;;5.15;;
46881;SDS011;44112;38.408;-122.974;2022-08-24T07:46:24;11.75;;;4.88;;
46881;SDS011;44112;38.408;-122.974;2022-08-24T07:48:51;11.93;;;5.18;;
46881;SDS011;44112;38.408;-122.974;2022-08-24T07:51:17;9.70;;;4.60;;
46881;SDS011;44112;38.408;-122.974;2022-08-24T07:53:44;9.98;;;4.88;;
46881;SDS011;44112;38.408;-122.974;2022-08-24T07:56:12;11.63;;;4.65;;
46881;SDS011;44112;38.408;-122.974;2022-08-24T07:58:39;9.55;;;4.65;;
46881;SDS011;44112;38.408;-122.974;2022-08-24T08:01:05;10.38;;;4.75;;
46881;SDS011;44112;38.408;-122.974;2022-08-24T08:03:34;11.60;;;4.72;;
46881;SDS011;44112;38.408;-122.974;2022-08-24T08:06:03;10.07;;;4.43;;
46881;SDS011;44112;38.408;-122.974;2022-08-24T08:08:33;11.32;;;5.20;;
46881;SDS011;44112;38.408;-122.974;2022-08-24T08:11:01;9.98;;;5.18;;
46881;SDS011;44112;38.408;-122.974;2022-08-24T08:13:29;11.48;;;4.95;;
46881;SDS011;44112;38.408;-122.974;2022-08-24T08:15:56;12.88;;;5.22;;
46881;SDS011;44112;38.408;-122.974;2022-08-24T08:18:24;11.73;;;4.93;;
46881;SDS011;44112;38.408;-122.974;2022-08-24T08:20:51;8.70;;;4.47;;
46881;SDS011;44112;38.408;-122.974;2022-08-24T08:23:19;10.45;;;4.72;;
46881;SDS011;44112;38.408;-122.974;2022-08-24T08:26:05;10.27;;;4.90;;
46881;SDS011;44112;38.408;-122.974;2022-08-24T08:28:36;10.40;;;5.20;;
46881;SDS011;44112;38.408;-122.974;2022-08-24T08:31:04;12.52;;;5.07;;
46881;SDS011;44112;38.408;-122.974;2022-08-24T08:33:32;9.52;;;4.88;;
46881;SDS011;44112;38.408;-122.974;2022-08-24T08:36:02;10.95;;;4.72;;
46881;SDS011;44112;38.408;-122.974;2022-08-24T08:38:31;14.95;;;4.60;;
46881;SDS011;44112;38.408;-122.974;2022-08-24T08:43:57;10.65;;;4.70;;
46881;SDS011;44112;38.408;-122.974;2022-08-24T08:54:58;10.20;;;4.53;;
46881;SDS011;44112;38.408;-122.974;2022-08-24T09:22:36;10.55;;;5.07;;
46881;SDS011;44112;38.408;-122.974;2022-08-24T09:25:20;11.40;;;4.88;;
46881;SDS011;44112;38.408;-122.974;2022-08-24T09:28:14;9.07;;;4.40;;
46881;SDS011;44112;38.408;-122.974;2022-08-24T09:30:55;10.95;;;5.25;;
46881;SDS011;44112;38.408;-122.974;2022-08-24T09:33:43;10.05;;;4.45;;
46881;SDS011;44112;38.408;-122.974;2022-08-24T09:45:16;11.13;;;5.40;;
46881;SDS011;44112;38.408;-122.974;2022-08-24T09:53:39;12.88;;;5.57;;
46881;SDS011;44112;38.408;-122.974;2022-08-24T10:05:08;10.13;;;4.82;;
46881;SDS011;44112;38.408;-122.974;2022-08-24T10:08:00;11.30;;;5.30;;
46881;SDS011;44112;38.408;-122.974;2022-08-24T10:13:48;11.18;;;5.07;;
46881;SDS011;44112;38.408;-122.974;2022-08-24T10:22:29;9.70;;;4.70;;
46881;SDS011;44112;38.408;-122.974;2022-08-24T10:25:19;10.52;;;5.22;;
46881;SDS011;44112;38.408;-122.974;2022-08-24T10:31:19;11.13;;;5.18;;
46881;SDS011;44112;38.408;-122.974;2022-08-24T10:42:33;13.07;;;5.93;;
46881;SDS011;44112;38.408;-122.974;2022-08-24T10:50:58;12.70;;;5.55;;
46881;SDS011;44112;38.408;-122.974;2022-08-24T10:53:50;12.00;;;5.40;;
46881;SDS011;44112;38.408;-122.974;2022-08-24T10:56:19;12.43;;;5.40;;
46881;SDS011;44112;38.408;-122.974;2022-08-24T11:02:09;11.30;;;5.07;;
46881;SDS011;44112;38.408;-122.974;2022-08-24T11:04:58;12.43;;;5.18;;
46881;SDS011;44112;38.408;-122.974;2022-08-24T11:07:33;11.57;;;5.07;;
46881;SDS011;44112;38.408;-122.974;2022-08-24T11:10:02;12.75;;;4.88;;
46881;SDS011;44112;38.408;-122.974;2022-08-24T11:12:33;10.80;;;5.40;;
46881;SDS011;44112;38.408;-122.974;2022-08-24T11:15:23;10.27;;;4.63;;
46881;SDS011;44112;38.408;-122.974;2022-08-24T11:17:59;9.88;;;4.97;;
46881;SDS011;44112;38.408;-122.974;2022-08-24T11:20:33;8.75;;;4.40;;
46881;SDS011;44112;38.408;-122.974;2022-08-24T11:23:08;10.80;;;5.15;;
46881;SDS011;44112;38.408;-122.974;2022-08-24T11:26:00;11.75;;;5.35;;
46881;SDS011;44112;38.408;-122.974;2022-08-24T11:28:35;9.70;;;5.35;;
46881;SDS011;44112;38.408;-122.974;2022-08-24T11:31:12;10.63;;;4.75;;
46881;SDS011;44112;38.408;-122.974;2022-08-24T11:33:47;10.93;;;4.95;;
46881;SDS011;44112;38.408;-122.974;2022-08-24T11:36:21;11.30;;;4.95;;
46881;SDS011;44112;38.408;-122.974;2022-08-24T11:58:09;12.20;;;5.43;;
46881;SDS011;44112;38.408;-122.974;2022-08-24T12:00:53;12.68;;;5.30;;
46881;SDS011;44112;38.408;-122.974;2022-08-24T12:14:39;10.05;;;4.75;;
46881;SDS011;44112;38.408;-122.974;2022-08-24T12:19:51;10.25;;;4.85;;
46881;SDS011;44112;38.408;-122.974;2022-08-24T12:22:26;10.48;;;4.93;;
46881;SDS011;44112;38.408;-122.974;2022-08-24T12:24:58;11.07;;;5.00;;
46881;SDS011;44112;38.408;-122.974;2022-08-24T12:27:47;10.45;;;5.20;;
46881;SDS011;44112;38.408;-122.974;2022-08-24T12:30:15;9.43;;;4.90;;
46881;SDS011;44112;38.408;-122.974;2022-08-24T12:32:56;10.10;;;5.18;;
46881;SDS011;44112;38.408;-122.974;2022-08-24T12:35:33;10.05;;;5.03;;
46881;SDS011;44112;38.408;-122.974;2022-08-24T12:38:27;9.05;;;4.82;;
46881;SDS011;44112;38.408;-122.974;2022-08-24T12:46:02;10.63;;;5.00;;
46881;SDS011;44112;38.408;-122.974;2022-08-24T13:01:41;9.40;;;4.25;;
46881;SDS011;44112;38.408;-122.974;2022-08-24T13:09:36;9.70;;;4.88;;
46881;SDS011;44112;38.408;-122.974;2022-08-24T13:17:43;10.63;;;4.68;;
46881;SDS011;44112;38.408;-122.974;2022-08-24T13:37:11;12.88;;;5.60;;
46881;SDS011;44112;38.408;-122.974;2022-08-24T13:50:28;12.15;;;5.05;;
46881;SDS011;44112;38.408;-122.974;2022-08-24T13:55:49;11.35;;;5.00;;
46881;SDS011;44112;38.408;-122.974;2022-08-24T13:58:52;11.23;;;4.72;;
46881;SDS011;44112;38.408;-122.974;2022-08-24T14:02:03;11.23;;;4.75;;
46881;SDS011;44112;38.408;-122.974;2022-08-24T14:09:31;10.43;;;4.95;;
46881;SDS011;44112;38.408;-122.974;2022-08-24T14:17:42;8.75;;;4.85;;
46881;SDS011;44112;38.408;-122.974;2022-08-24T14:34:38;9.77;;;4.45;;
46881;SDS011;44112;38.408;-122.974;2022-08-24T14:45:10;9.63;;;4.53;;
46881;SDS011;44112;38.408;-122.974;2022-08-24T14:47:58;7.95;;;4.55;;
46881;SDS011;44112;38.408;-122.974;2022-08-24T14:50:39;9.48;;;4.38;;
46881;SDS011;44112;38.408;-122.974;2022-08-24T15:07:56;9.82;;;4.32;;
46881;SDS011;44112;38.408;-122.974;2022-08-24T15:10:28;10.02;;;4.45;;
46881;SDS011;44112;38.408;-122.974;2022-08-24T15:13:25;9.93;;;4.50;;
46881;SDS011;44112;38.408;-122.974;2022-08-24T15:16:12;12.95;;;5.05;;
46881;SDS011;44112;38.408;-122.974;2022-08-24T15:18:48;11.07;;;4.70;;
46881;SDS011;44112;38.408;-122.974;2022-08-24T15:29:18;12.73;;;5.07;;
46881;SDS011;44112;38.408;-122.974;2022-08-24T15:31:55;8.02;;;4.45;;
46881;SDS011;44112;38.408;-122.974;2022-08-24T15:34:36;11.27;;;4.90;;
46881;SDS011;44112;38.408;-122.974;2022-08-24T15:37:10;8.43;;;4.32;;
46881;SDS011;44112;38.408;-122.974;2022-08-24T15:39:40;8.60;;;4.20;;
46881;SDS011;44112;38.408;-122.974;2022-08-24T15:42:08;9.32;;;4.43;;
46881;SDS011;44112;38.408;-122.974;2022-08-24T15:44:38;8.45;;;4.30;;
46881;SDS011;44112;38.408;-122.974;2022-08-24T15:55:30;11.00;;;4.88;;
46881;SDS011;44112;38.408;-122.974;2022-08-24T16:00:48;8.40;;;4.55;;
46881;SDS011;44112;38.408;-122.974;2022-08-24T16:06:20;10.32;;;4.68;;
46881;SDS011;44112;38.408;-122.974;2022-08-24T16:09:02;9.10;;;4.57;;
46881;SDS011;44112;38.408;-122.974;2022-08-24T16:11:49;8.23;;;4.57;;
46881;SDS011;44112;38.408;-122.974;2022-08-24T16:14:32;9.63;;;4.53;;
46881;SDS011;44112;38.408;-122.974;2022-08-24T16:17:32;7.88;;;4.20;;
46881;SDS011;44112;38.408;-122.974;2022-08-24T16:20:04;10.20;;;4.22;;
46881;SDS011;44112;38.408;-122.974;2022-08-24T16:22:37;9.32;;;4.10;;
46881;SDS011;44112;38.408;-122.974;2022-08-24T16:25:25;8.50;;;4.25;;
46881;SDS011;44112;38.408;-122.974;2022-08-24T16:33:03;10.77;;;4.35;;
46881;SDS011;44112;38.408;-122.974;2022-08-24T16:35:31;8.68;;;4.13;;
46881;SDS011;44112;38.408;-122.974;2022-08-24T16:37:58;10.18;;;4.43;;
46881;SDS011;44112;38.408;-122.974;2022-08-24T16:40:25;11.68;;;4.32;;
46881;SDS011;44112;38.408;-122.974;2022-08-24T16:42:54;9.48;;;4.35;;
46881;SDS011;44112;38.408;-122.974;2022-08-24T16:45:22;8.07;;;4.05;;
46881;SDS011;44112;38.408;-122.974;2022-08-24T16:47:49;7.80;;;4.13;;
46881;SDS011;44112;38.408;-122.974;2022-08-24T16:50:17;8.50;;;4.18;;
46881;SDS011;44112;38.408;-122.974;2022-08-24T16:52:45;9.55;;;4.18;;
46881;SDS011;44112;38.408;-122.974;2022-08-24T16:55:13;9.75;;;4.85;;
46881;SDS011;44112;38.408;-122.974;2022-08-24T16:57:39;10.65;;;4.40;;
46881;SDS011;44112;38.408;-122.974;2022-08-24T17:00:07;9.65;;;4.25;;
46881;SDS011;44112;38.408;-122.974;2022-08-24T17:02:39;10.35;;;4.32;;
46881;SDS011;44112;38.408;-122.974;2022-08-24T17:05:07;12.57;;;5.00;;
46881;SDS011;44112;38.408;-122.974;2022-08-24T17:07:34;16.38;;;5.60;;
46881;SDS011;44112;38.408;-122.974;2022-08-24T17:10:01;18.10;;;5.63;;
46881;SDS011;44112;38.408;-122.974;2022-08-24T17:12:30;20.90;;;5.43;;
46881;SDS011;44112;38.408;-122.974;2022-08-24T17:15:00;15.38;;;5.45;;
46881;SDS011;44112;38.408;-122.974;2022-08-24T17:17:31;15.18;;;5.78;;
46881;SDS011;44112;38.408;-122.974;2022-08-24T17:19:59;15.13;;;5.72;;
46881;SDS011;44112;38.408;-122.974;2022-08-24T17:22:28;18.10;;;5.28;;
46881;SDS011;44112;38.408;-122.974;2022-08-24T17:24:55;13.13;;;5.28;;
46881;SDS011;44112;38.408;-122.974;2022-08-24T17:27:23;11.52;;;4.97;;
46881;SDS011;44112;38.408;-122.974;2022-08-24T17:29:55;12.70;;;5.17;;
46881;SDS011;44112;38.408;-122.974;2022-08-24T17:32:23;11.75;;;4.68;;
46881;SDS011;44112;38.408;-122.974;2022-08-24T17:34:50;13.75;;;5.03;;
46881;SDS011;44112;38.408;-122.974;2022-08-24T17:37:17;13.95;;;4.97;;
46881;SDS011;44112;38.408;-122.974;2022-08-24T17:39:44;13.40;;;4.93;;
46881;SDS011;44112;38.408;-122.974;2022-08-24T17:42:12;11.63;;;4.70;;
46881;SDS011;44112;38.408;-122.974;2022-08-24T17:44:38;9.35;;;4.50;;
46881;SDS011;44112;38.408;-122.974;2022-08-24T17:47:05;12.73;;;5.10;;
46881;SDS011;44112;38.408;-122.974;2022-08-24T17:49:32;13.02;;;5.10;;
46881;SDS011;44112;38.408;-122.974;2022-08-24T17:51:59;10.73;;;4.97;;
46881;SDS011;44112;38.408;-122.974;2022-08-24T17:54:25;12.00;;;4.97;;
46881;SDS011;44112;38.408;-122.974;2022-08-24T17:56:52;13.98;;;5.15;;
46881;SDS011;44112;38.408;-122.974;2022-08-24T17:59:24;11.93;;;4.85;;
46881;SDS011;44112;38.408;-122.974;2022-08-24T18:01:59;13.07;;;4.97;;
46881;SDS011;44112;38.408;-122.974;2022-08-24T18:04:29;12.48;;;4.63;;
46881;SDS011;44112;38.408;-122.974;2022-08-24T18:06:58;10.45;;;4.72;;
46881;SDS011;44112;38.408;-122.974;2022-08-24T18:12:02;8.82;;;4.47;;
46881;SDS011;44112;38.408;-122.974;2022-08-24T18:14:31;9.90;;;4.50;;
46881;SDS011;44112;38.408;-122.974;2022-08-24T18:17:00;12.07;;;4.68;;
46881;SDS011;44112;38.408;-122.974;2022-08-24T18:19:29;7.93;;;3.90;;
46881;SDS011;44112;38.408;-122.974;2022-08-24T18:21:57;9.32;;;4.50;;
46881;SDS011;44112;38.408;-122.974;2022-08-24T18:24:27;12.63;;;3.92;;
46881;SDS011;44112;38.408;-122.974;2022-08-24T18:27:00;9.30;;;3.78;;
46881;SDS011;44112;38.408;-122.974;2022-08-24T18:29:40;8.07;;;4.10;;
46881;SDS011;44112;38.408;-122.974;2022-08-24T18:32:09;8.63;;;3.80;;
46881;SDS011;44112;38.408;-122.974;2022-08-24T18:34:37;7.60;;;3.88;;
46881;SDS011;44112;38.408;-122.974;2022-08-24T18:37:03;9.40;;;4.00;;
46881;SDS011;44112;38.408;-122.974;2022-08-24T18:39:30;10.15;;;3.55;;
46881;SDS011;44112;38.408;-122.974;2022-08-24T18:41:57;8.32;;;3.50;;
46881;SDS011;44112;38.408;-122.974;2022-08-24T18:44:27;10.73;;;3.90;;
46881;SDS011;44112;38.408;-122.974;2022-08-24T18:46:53;10.20;;;4.30;;
46881;SDS011;44112;38.408;-122.974;2022-08-24T18:49:20;17.70;;;4.38;;